createdAt,value
2022-10-26T00:01:11.807Z,26.30
2022-10-26T00:03:43.708Z,26.48
2022-10-26T00:06:14.882Z,29.05
2022-10-26T00:08:42.496Z,26.65
2022-10-26T00:11:10.993Z,27.10
2022-10-26T00:13:39.530Z,28.70
2022-10-26T00:16:15.359Z,29.00
2022-10-26T00:18:43.743Z,24.98
2022-10-26T00:21:11.289Z,31.35
2022-10-26T00:23:39.572Z,31.63
2022-10-26T00:26:07.116Z,32.33
2022-10-26T00:28:34.601Z,30.48
2022-10-26T00:31:07.534Z,31.63
2022-10-26T00:33:35.011Z,28.52
2022-10-26T00:36:02.205Z,32.92
2022-10-26T00:38:29.762Z,36.90
2022-10-26T00:43:25.134Z,38.78
2022-10-26T00:45:53.837Z,35.20
2022-10-26T00:48:35.505Z,30.67
2022-10-26T00:51:09.119Z,30.67
2022-10-26T00:53:37.618Z,33.58
2022-10-26T00:56:05.088Z,31.23
2022-10-26T00:58:32.781Z,35.88
2022-10-26T01:00:59.795Z,30.25
2022-10-26T01:03:28.459Z,36.00
2022-10-26T01:05:58.954Z,35.58
2022-10-26T01:08:28.676Z,31.70
2022-10-26T01:10:57.818Z,36.25
2022-10-26T01:13:28.404Z,36.67
2022-10-26T01:15:55.454Z,38.10
2022-10-26T01:18:41.636Z,33.08
2022-10-26T01:21:20.943Z,32.63
2022-10-26T01:23:57.005Z,35.03
2022-10-26T01:26:49.867Z,35.38
2022-10-26T01:30:02.253Z,34.33
2022-10-26T01:33:03.159Z,35.88
2022-10-26T01:35:34.512Z,36.22
2022-10-26T01:38:11.013Z,38.15
2022-10-26T01:40:45.615Z,37.22
2022-10-26T01:43:14.773Z,35.95
2022-10-26T01:45:46.487Z,35.85
2022-10-26T01:50:45.482Z,36.08
2022-10-26T01:53:15.362Z,44.08
2022-10-26T01:55:49.062Z,35.00
2022-10-26T01:58:25.094Z,33.67
2022-10-26T02:01:38.597Z,36.42
2022-10-26T02:04:30.233Z,41.30
2022-10-26T02:09:55.936Z,37.38
2022-10-26T02:12:57.602Z,34.70
2022-10-26T02:15:54.743Z,40.70
2022-10-26T02:18:27.668Z,39.42
2022-10-26T02:21:01.318Z,34.08
2022-10-26T02:23:32.738Z,30.55
2022-10-26T02:26:01.299Z,33.03
2022-10-26T02:28:34.310Z,31.35
2022-10-26T02:31:03.867Z,32.47
2022-10-26T02:33:35.262Z,30.60
2022-10-26T02:36:05.614Z,35.03
2022-10-26T02:38:34.569Z,31.63
2022-10-26T02:41:03.873Z,29.98
2022-10-26T02:43:39.145Z,37.20
2022-10-26T02:46:15.363Z,35.35
2022-10-26T02:48:42.952Z,40.00
2022-10-26T02:51:15.719Z,33.75
2022-10-26T02:54:15.252Z,39.13
2022-10-26T02:56:55.646Z,37.22
2022-10-26T02:59:28.005Z,36.97
2022-10-26T03:01:55.891Z,38.08
2022-10-26T03:04:30.027Z,36.80
2022-10-26T03:06:57.222Z,38.75
2022-10-26T03:09:25.561Z,38.15
2022-10-26T03:11:53.593Z,34.92
2022-10-26T03:14:20.811Z,37.58
2022-10-26T03:16:47.764Z,38.28
2022-10-26T03:19:15.103Z,40.72
2022-10-26T03:21:42.485Z,32.03
2022-10-26T03:24:10.180Z,36.00
2022-10-26T03:26:37.323Z,35.47
2022-10-26T03:29:04.627Z,45.92
2022-10-26T03:31:31.444Z,42.13
2022-10-26T03:33:58.742Z,38.20
2022-10-26T03:36:25.947Z,42.97
2022-10-26T03:38:53.053Z,39.95
2022-10-26T03:41:20.077Z,38.33
2022-10-26T03:43:48.530Z,35.78
2022-10-26T03:46:15.597Z,34.95
2022-10-26T03:48:42.680Z,41.45
2022-10-26T03:51:09.641Z,35.75
2022-10-26T03:53:36.773Z,40.78
2022-10-26T03:56:03.730Z,37.20
2022-10-26T03:58:30.869Z,38.38
2022-10-26T04:00:57.744Z,43.20
2022-10-26T04:03:24.925Z,37.38
2022-10-26T04:05:52.288Z,38.17
2022-10-26T04:08:19.708Z,38.63
2022-10-26T04:10:47.572Z,37.63
2022-10-26T04:13:14.929Z,43.70
2022-10-26T04:15:41.935Z,39.42
2022-10-26T04:18:09.543Z,40.58
2022-10-26T04:20:36.880Z,44.58
2022-10-26T04:23:06.777Z,42.45
2022-10-26T04:25:34.341Z,45.90
2022-10-26T04:28:03.924Z,39.55
2022-10-26T04:30:32.363Z,36.72
2022-10-26T04:32:59.674Z,41.78
2022-10-26T04:35:27.591Z,46.35
2022-10-26T04:38:06.914Z,38.92
2022-10-26T04:40:35.359Z,44.65
2022-10-26T04:43:02.715Z,43.97
2022-10-26T04:45:31.172Z,41.38
2022-10-26T04:48:05.137Z,38.47
2022-10-26T04:50:32.277Z,37.10
2022-10-26T04:52:59.594Z,38.70
2022-10-26T04:55:26.829Z,40.05
2022-10-26T04:57:56.041Z,43.90
2022-10-26T05:00:25.783Z,38.78
2022-10-26T05:02:59.364Z,41.88
2022-10-26T05:05:27.043Z,39.45
2022-10-26T05:07:56.264Z,39.50
2022-10-26T05:10:24.945Z,44.75
2022-10-26T05:12:57.088Z,45.00
2022-10-26T05:15:24.296Z,39.13
2022-10-26T05:18:00.021Z,41.45
2022-10-26T05:20:31.036Z,48.38
2022-10-26T05:23:01.242Z,45.67
2022-10-26T05:25:30.059Z,40.63
2022-10-26T05:28:01.404Z,41.85
2022-10-26T05:30:29.883Z,45.45
2022-10-26T05:32:59.926Z,42.83
2022-10-26T05:35:28.511Z,41.20
2022-10-26T05:37:56.310Z,46.78
2022-10-26T05:40:24.524Z,39.25
2022-10-26T05:42:53.153Z,38.35
2022-10-26T05:45:20.308Z,39.78
2022-10-26T05:47:47.981Z,41.42
2022-10-26T05:50:15.290Z,35.80
2022-10-26T05:52:45.072Z,34.53
2022-10-26T05:55:15.395Z,42.00
2022-10-26T05:57:43.926Z,39.10
2022-10-26T06:00:23.276Z,35.75
2022-10-26T06:03:08.698Z,37.33
2022-10-26T06:05:45.254Z,38.28
2022-10-26T06:08:12.973Z,37.92
2022-10-26T06:10:41.728Z,33.28
2022-10-26T06:13:09.543Z,37.90
2022-10-26T06:16:09.986Z,38.97
2022-10-26T06:18:46.252Z,37.72
2022-10-26T06:21:26.876Z,35.90
2022-10-26T06:24:08.888Z,43.83
2022-10-26T06:26:45.466Z,34.33
2022-10-26T06:29:31.629Z,30.00
2022-10-26T06:31:59.241Z,32.20
2022-10-26T06:34:33.109Z,32.88
2022-10-26T06:37:01.848Z,26.08
2022-10-26T06:39:36.099Z,27.10
2022-10-26T06:42:03.629Z,26.75
2022-10-26T06:44:31.731Z,27.77
2022-10-26T06:47:19.729Z,26.63
2022-10-26T06:49:59.474Z,29.05
2022-10-26T06:52:44.996Z,25.25
2022-10-26T06:55:17.319Z,32.63
2022-10-26T06:57:45.133Z,27.60
2022-10-26T07:00:25.462Z,28.27
2022-10-26T07:02:52.974Z,30.05
2022-10-26T07:05:21.241Z,29.00
2022-10-26T07:07:48.945Z,30.77
2022-10-26T07:10:16.718Z,30.58
2022-10-26T07:12:44.666Z,29.13
2022-10-26T07:15:12.300Z,34.00
2022-10-26T07:17:48.190Z,33.70
2022-10-26T07:20:18.176Z,29.38
2022-10-26T07:22:45.219Z,32.95
2022-10-26T07:25:12.771Z,35.05
2022-10-26T07:27:39.844Z,30.90
2022-10-26T07:30:08.565Z,30.40
2022-10-26T07:32:36.638Z,30.80
2022-10-26T07:35:05.005Z,31.38
2022-10-26T07:37:32.289Z,31.65
2022-10-26T07:40:04.030Z,29.70
2022-10-26T07:42:34.692Z,36.13
2022-10-26T07:45:02.351Z,31.42
2022-10-26T07:47:29.323Z,36.05
2022-10-26T07:49:56.755Z,28.02
2022-10-26T07:52:24.249Z,30.42
2022-10-26T07:54:51.475Z,32.17
2022-10-26T07:57:18.709Z,26.75
2022-10-26T07:59:46.000Z,26.27
2022-10-26T08:02:13.931Z,27.60
2022-10-26T08:04:41.533Z,26.67
2022-10-26T08:07:08.461Z,25.95
2022-10-26T08:09:35.925Z,25.65
2022-10-26T08:12:02.853Z,25.38
2022-10-26T08:14:30.042Z,27.92
2022-10-26T08:16:57.241Z,27.27
2022-10-26T08:19:24.650Z,41.28
2022-10-26T08:21:51.602Z,36.28
2022-10-26T08:24:19.369Z,23.92
2022-10-26T08:26:47.546Z,22.83
2022-10-26T08:29:14.752Z,26.52
2022-10-26T08:31:41.993Z,26.98
2022-10-26T08:34:09.233Z,27.35
2022-10-26T08:36:36.692Z,48.88
2022-10-26T08:39:04.863Z,73.53
2022-10-26T08:41:41.156Z,69.80
2022-10-26T08:44:14.294Z,39.85
2022-10-26T08:46:47.081Z,145.63
2022-10-26T08:49:24.352Z,84.60
2022-10-26T08:51:56.265Z,39.17
2022-10-26T08:54:29.177Z,31.88
2022-10-26T08:57:00.818Z,25.58
2022-10-26T08:59:38.954Z,30.52
2022-10-26T09:02:13.239Z,24.42
2022-10-26T09:04:40.981Z,27.30
2022-10-26T09:07:20.489Z,28.65
2022-10-26T09:10:00.675Z,31.15
2022-10-26T09:12:44.047Z,28.27
2022-10-26T09:15:31.787Z,29.55
2022-10-26T09:18:02.106Z,27.85
2022-10-26T09:20:44.041Z,37.15
2022-10-26T09:23:43.711Z,25.67
2022-10-26T09:26:22.064Z,27.95
2022-10-26T09:28:49.843Z,32.53
2022-10-26T09:31:18.118Z,28.27
2022-10-26T09:33:45.091Z,30.85
2022-10-26T09:36:21.590Z,35.45
2022-10-26T09:38:51.271Z,29.20
2022-10-26T09:41:31.659Z,38.13
2022-10-26T09:44:18.553Z,32.55
2022-10-26T09:46:57.822Z,26.23
2022-10-26T09:49:33.795Z,27.65
2022-10-26T09:52:01.731Z,17.58
2022-10-26T09:54:29.827Z,21.17
2022-10-26T09:57:00.276Z,18.85
2022-10-26T09:59:27.939Z,21.60
2022-10-26T10:01:55.933Z,21.38
2022-10-26T10:04:24.362Z,19.27
2022-10-26T10:07:13.070Z,18.48
2022-10-26T10:09:40.279Z,16.50
2022-10-26T10:12:20.561Z,17.40
2022-10-26T10:14:59.128Z,21.83
2022-10-26T10:17:26.775Z,17.60
2022-10-26T10:19:53.958Z,18.45
2022-10-26T10:22:25.814Z,19.98
2022-10-26T10:27:24.121Z,18.67
2022-10-26T10:29:53.307Z,21.25
2022-10-26T10:32:34.074Z,22.05
2022-10-26T10:35:23.316Z,22.90
2022-10-26T10:37:51.771Z,19.40
2022-10-26T10:40:22.224Z,22.27
2022-10-26T10:42:51.657Z,24.63
2022-10-26T10:45:23.457Z,22.73
2022-10-26T10:50:31.123Z,29.77
2022-10-26T10:53:26.658Z,23.02
2022-10-26T10:56:12.486Z,21.63
2022-10-26T10:59:18.152Z,24.85
2022-10-26T11:02:16.520Z,23.20
2022-10-26T11:04:53.017Z,21.85
2022-10-26T11:07:21.763Z,20.02
2022-10-26T11:15:14.377Z,23.63
2022-10-26T11:17:53.393Z,25.35
2022-10-26T11:20:24.601Z,23.83
2022-10-26T11:23:00.719Z,18.83
2022-10-26T11:25:50.289Z,25.70
2022-10-26T11:28:49.481Z,24.23
2022-10-26T11:31:29.401Z,22.67
2022-10-26T11:34:18.182Z,19.10
2022-10-26T11:36:50.642Z,23.60
2022-10-26T11:39:21.018Z,22.85
2022-10-26T11:42:03.284Z,21.33
2022-10-26T11:44:38.071Z,20.42
2022-10-26T11:47:18.679Z,20.00
2022-10-26T11:50:06.665Z,21.60
2022-10-26T11:53:12.972Z,19.90
2022-10-26T11:55:41.095Z,21.42
2022-10-26T11:58:11.854Z,20.40
2022-10-26T12:00:51.900Z,26.83
2022-10-26T12:03:25.149Z,22.67
2022-10-26T12:05:52.445Z,23.63
2022-10-26T12:08:31.111Z,20.70
2022-10-26T12:11:42.989Z,26.15
2022-10-26T12:14:22.809Z,21.42
2022-10-26T12:16:59.412Z,22.63
2022-10-26T12:19:45.965Z,22.85
2022-10-26T12:22:16.412Z,20.83
2022-10-26T12:24:46.190Z,24.83
2022-10-26T12:27:49.964Z,25.85
2022-10-26T12:30:25.167Z,23.45
2022-10-26T12:33:22.640Z,23.60
2022-10-26T12:35:50.183Z,24.45
2022-10-26T12:38:31.663Z,20.05
2022-10-26T12:41:12.033Z,24.40
2022-10-26T12:43:40.820Z,24.13
2022-10-26T12:46:13.756Z,24.08
2022-10-26T12:48:51.742Z,22.85
2022-10-26T12:51:18.907Z,22.52
2022-10-26T12:53:58.063Z,25.63
2022-10-26T12:56:33.320Z,28.42
2022-10-26T12:59:33.449Z,22.75
2022-10-26T13:02:22.318Z,26.25
2022-10-26T13:05:27.353Z,23.95
2022-10-26T13:08:02.633Z,26.63
2022-10-26T13:10:29.843Z,24.10
2022-10-26T13:13:02.992Z,23.20
2022-10-26T13:15:38.810Z,21.98
2022-10-26T13:18:06.144Z,22.60
2022-10-26T13:20:36.317Z,22.35
2022-10-26T13:23:16.115Z,25.93
2022-10-26T13:26:01.022Z,26.77
2022-10-26T13:28:39.121Z,28.60
2022-10-26T13:31:18.683Z,24.05
2022-10-26T13:33:47.466Z,22.58
2022-10-26T13:36:36.515Z,24.08
2022-10-26T13:39:15.068Z,21.25
2022-10-26T13:41:45.528Z,23.42
2022-10-26T13:44:23.726Z,25.07
2022-10-26T13:46:59.424Z,27.30
2022-10-26T13:50:07.407Z,21.85
2022-10-26T13:52:43.157Z,22.92
2022-10-26T13:55:34.043Z,21.95
2022-10-26T13:58:22.426Z,22.95
2022-10-26T14:01:11.697Z,23.77
2022-10-26T14:03:39.398Z,17.45
2022-10-26T14:06:20.137Z,21.77
2022-10-26T14:08:49.553Z,23.40
2022-10-26T14:11:23.282Z,21.13
2022-10-26T14:13:51.039Z,26.98
2022-10-26T14:16:20.499Z,27.77
2022-10-26T14:18:49.383Z,22.27
2022-10-26T14:21:20.518Z,22.23
2022-10-26T14:23:58.811Z,20.35
2022-10-26T14:26:28.348Z,19.95
2022-10-26T14:29:01.641Z,19.75
2022-10-26T14:31:32.415Z,22.73
2022-10-26T14:34:01.882Z,23.90
2022-10-26T14:36:34.156Z,23.48
2022-10-26T14:39:06.539Z,25.33
2022-10-26T14:41:36.582Z,24.52
2022-10-26T14:44:04.526Z,24.13
2022-10-26T14:46:35.664Z,22.77
2022-10-26T14:49:03.701Z,21.02
2022-10-26T14:51:35.830Z,25.58
2022-10-26T14:54:04.463Z,22.48
2022-10-26T14:56:40.974Z,21.13
2022-10-26T14:59:31.828Z,22.70
2022-10-26T15:02:11.546Z,20.43
2022-10-26T15:04:56.358Z,23.60
2022-10-26T15:07:23.828Z,26.55
2022-10-26T15:09:53.594Z,22.45
2022-10-26T15:12:38.481Z,19.08
2022-10-26T15:15:14.540Z,27.40
2022-10-26T15:17:49.570Z,22.30
2022-10-26T15:20:23.265Z,26.33
2022-10-26T15:23:00.607Z,22.90
2022-10-26T15:25:33.996Z,21.83
2022-10-26T15:28:21.931Z,26.88
2022-10-26T15:31:22.733Z,25.60
2022-10-26T15:33:52.971Z,26.70
2022-10-26T15:36:27.600Z,19.92
2022-10-26T15:38:55.789Z,23.52
2022-10-26T15:41:32.189Z,21.75
2022-10-26T15:44:05.965Z,22.85
2022-10-26T15:46:36.657Z,25.33
2022-10-26T15:49:05.911Z,25.60
2022-10-26T15:51:33.363Z,22.63
2022-10-26T15:54:04.111Z,22.83
2022-10-26T15:56:32.132Z,24.90
2022-10-26T15:59:00.157Z,24.70
2022-10-26T16:01:29.631Z,21.70
2022-10-26T16:03:56.836Z,26.77
2022-10-26T16:06:28.764Z,20.08
2022-10-26T16:08:58.869Z,22.98
2022-10-26T16:11:26.528Z,23.52
2022-10-26T16:13:55.198Z,27.35
2022-10-26T16:16:24.287Z,28.23
2022-10-26T16:19:11.873Z,26.77
2022-10-26T16:24:11.257Z,20.00
2022-10-26T16:26:38.368Z,24.67
2022-10-26T16:29:05.902Z,26.13
2022-10-26T16:31:32.904Z,26.77
2022-10-26T16:34:03.244Z,20.52
2022-10-26T16:36:34.591Z,24.58
2022-10-26T16:41:31.277Z,26.33
2022-10-26T16:43:58.918Z,31.17
2022-10-26T16:46:26.289Z,24.05
2022-10-26T16:48:53.505Z,26.98
2022-10-26T16:51:26.561Z,22.92
2022-10-26T16:53:55.873Z,34.85
2022-10-26T16:56:27.183Z,31.92
2022-10-26T16:58:55.271Z,32.75
2022-10-26T17:01:23.303Z,30.55
2022-10-26T17:03:51.602Z,22.90
2022-10-26T17:06:19.832Z,27.38
2022-10-26T17:08:47.484Z,26.50
2022-10-26T17:11:19.641Z,25.33
2022-10-26T17:13:47.996Z,28.33
2022-10-26T17:16:21.551Z,28.80
2022-10-26T17:18:49.639Z,30.10
2022-10-26T17:21:18.879Z,30.08
2022-10-26T17:23:46.373Z,39.50
2022-10-26T17:26:15.226Z,34.58
2022-10-26T17:28:42.370Z,25.70
2022-10-26T17:31:13.041Z,28.20
2022-10-26T17:33:42.903Z,29.40
2022-10-26T17:36:14.231Z,26.17
2022-10-26T17:38:43.157Z,28.13
2022-10-26T17:41:12.990Z,23.98
2022-10-26T17:43:41.579Z,27.85
2022-10-26T17:46:24.293Z,29.25
2022-10-26T17:48:57.400Z,28.15
2022-10-26T17:51:25.948Z,29.45
2022-10-26T17:53:53.644Z,32.55
2022-10-26T17:56:24.758Z,33.13
2022-10-26T17:59:01.568Z,30.65
2022-10-26T18:01:29.685Z,30.75
2022-10-26T18:03:57.323Z,31.92
2022-10-26T18:06:24.762Z,35.92
2022-10-26T18:08:52.043Z,32.92
2022-10-26T18:11:26.196Z,29.58
2022-10-26T18:13:58.079Z,31.30
2022-10-26T18:16:27.132Z,31.83
2022-10-26T18:19:00.647Z,26.73
2022-10-26T18:21:29.922Z,39.47
2022-10-26T18:23:57.111Z,31.27
2022-10-26T18:26:31.322Z,37.45
2022-10-26T18:29:00.056Z,42.72
2022-10-26T18:31:28.569Z,38.75
2022-10-26T18:33:57.496Z,39.80
2022-10-26T18:36:25.329Z,48.40
2022-10-26T18:38:53.530Z,41.35
2022-10-26T18:41:21.913Z,45.58
2022-10-26T18:43:51.686Z,42.42
2022-10-26T18:46:23.636Z,41.00
2022-10-26T18:48:58.179Z,39.13
2022-10-26T18:51:30.615Z,42.67
2022-10-26T18:53:58.814Z,37.22
2022-10-26T18:56:27.296Z,32.90
2022-10-26T18:58:59.542Z,41.30
2022-10-26T19:01:32.486Z,46.05
2022-10-26T19:04:02.019Z,43.00
2022-10-26T19:06:32.401Z,54.92
2022-10-26T19:08:59.910Z,41.85
2022-10-26T19:11:28.838Z,41.22
2022-10-26T19:13:56.197Z,40.70
2022-10-26T19:16:45.353Z,41.78
2022-10-26T19:19:16.381Z,48.17
2022-10-26T19:21:45.009Z,39.92
2022-10-26T19:24:16.695Z,37.13
2022-10-26T19:26:44.436Z,50.85
2022-10-26T19:29:15.189Z,42.17
2022-10-26T19:31:47.440Z,41.20
2022-10-26T19:34:15.884Z,47.20
2022-10-26T19:36:45.156Z,40.63
2022-10-26T19:39:17.630Z,46.67
2022-10-26T19:41:46.879Z,64.57
2022-10-26T19:44:15.327Z,56.20
2022-10-26T19:46:43.697Z,49.40
2022-10-26T19:49:12.596Z,56.65
2022-10-26T19:51:40.161Z,53.60
2022-10-26T19:54:07.679Z,51.05
2022-10-26T19:56:36.571Z,50.42
2022-10-26T19:59:04.382Z,47.03
2022-10-26T20:01:31.373Z,49.42
2022-10-26T20:03:58.613Z,50.20
2022-10-26T20:06:25.528Z,58.90
2022-10-26T20:08:52.571Z,51.17
2022-10-26T20:11:20.313Z,53.15
2022-10-26T20:13:48.464Z,47.10
2022-10-26T20:16:17.433Z,42.00
2022-10-26T20:18:47.860Z,41.85
2022-10-26T20:21:17.157Z,41.03
2022-10-26T20:23:45.017Z,41.55
2022-10-26T20:26:19.575Z,42.08
2022-10-26T20:28:51.107Z,40.72
2022-10-26T20:31:18.563Z,37.15
2022-10-26T20:33:49.509Z,45.85
2022-10-26T20:36:16.591Z,44.05
2022-10-26T20:38:44.054Z,40.95
2022-10-26T20:41:14.473Z,37.80
2022-10-26T20:43:42.752Z,40.33
2022-10-26T20:46:23.635Z,40.47
2022-10-26T20:48:52.450Z,45.63
2022-10-26T20:51:26.549Z,39.17
2022-10-26T20:54:10.494Z,37.92
2022-10-26T20:56:41.718Z,50.95
2022-10-26T20:59:25.069Z,36.45
2022-10-26T21:01:52.187Z,43.67
2022-10-26T21:04:19.480Z,57.25
2022-10-26T21:06:46.578Z,35.15
2022-10-26T21:09:13.612Z,38.95
2022-10-26T21:11:40.763Z,41.10
2022-10-26T21:14:08.092Z,42.80
2022-10-26T21:16:35.000Z,47.10
2022-10-26T21:19:04.933Z,45.08
2022-10-26T21:21:31.857Z,45.72
2022-10-26T21:23:59.003Z,50.50
2022-10-26T21:26:25.899Z,49.92
2022-10-26T21:28:53.067Z,42.60
2022-10-26T21:31:21.266Z,46.53
2022-10-26T21:33:48.789Z,45.08
2022-10-26T21:36:16.837Z,42.55
2022-10-26T21:38:45.532Z,42.47
2022-10-26T21:41:15.216Z,44.80
2022-10-26T21:43:48.647Z,43.38
2022-10-26T21:46:18.761Z,39.50
2022-10-26T21:48:46.675Z,48.47
2022-10-26T21:51:16.673Z,46.45
2022-10-26T21:53:44.342Z,54.05
2022-10-26T21:56:18.738Z,42.03
2022-10-26T21:58:46.318Z,52.92
2022-10-26T22:01:18.566Z,50.75
2022-10-26T22:03:46.494Z,41.45
2022-10-26T22:06:17.010Z,46.15
2022-10-26T22:08:45.167Z,40.60
2022-10-26T22:11:18.135Z,46.50
2022-10-26T22:13:46.757Z,44.80
2022-10-26T22:16:25.493Z,43.75
2022-10-26T22:18:54.825Z,39.80
2022-10-26T22:21:25.744Z,39.78
2022-10-26T22:23:53.745Z,34.50
2022-10-26T22:26:23.447Z,41.25
2022-10-26T22:28:53.515Z,40.47
2022-10-26T22:31:26.827Z,36.95
2022-10-26T22:34:07.601Z,39.30
2022-10-26T22:36:36.036Z,41.25
2022-10-26T22:39:04.027Z,39.50
2022-10-26T22:41:31.150Z,40.45
2022-10-26T22:44:16.891Z,33.95
2022-10-26T22:46:45.261Z,38.72
2022-10-26T22:49:13.238Z,32.40
2022-10-26T22:51:40.901Z,39.30
2022-10-26T22:54:07.840Z,37.78
2022-10-26T22:56:36.369Z,34.33
2022-10-26T22:59:05.097Z,39.20
2022-10-26T23:01:36.709Z,43.00
2022-10-26T23:06:32.720Z,38.00
2022-10-26T23:08:59.855Z,37.83
2022-10-26T23:11:29.213Z,39.00
2022-10-26T23:13:58.992Z,32.17
2022-10-26T23:16:27.581Z,43.25
2022-10-26T23:18:55.525Z,37.08
2022-10-26T23:23:57.209Z,41.60
2022-10-26T23:26:24.843Z,38.63
2022-10-26T23:28:52.031Z,39.60
2022-10-26T23:31:22.495Z,40.92
2022-10-26T23:33:51.394Z,41.13
2022-10-26T23:36:19.067Z,41.97
2022-10-26T23:38:46.982Z,38.45
2022-10-26T23:41:15.091Z,40.50
2022-10-26T23:43:42.450Z,42.15
2022-10-26T23:46:09.743Z,45.28
2022-10-26T23:48:37.380Z,45.20
2022-10-26T23:51:05.086Z,48.60
2022-10-26T23:53:32.091Z,49.47
2022-10-26T23:56:17.394Z,47.08
2022-10-26T23:58:44.525Z,45.63
